PAL24 RPLL-RPVE
Flight info
| Callsign | PAL24 |
|---|---|
| Flight time | N/A |
| Altitude | 25000 |
| Route | VERDE2R VERDE W24 TAPER TAPER7A |
| Aircraft | A320/M-SDE3FGHIRWY/LB1 |
Departure
| Time | N/A |
|---|---|
| Airport | Ninoy Aquino International Airport (RPLL) |
Arrival
| Time | 2026-04-21 11:16 |
|---|---|
| Airport | Godofredo P. Ramos Airport (RPVE) |
| Time | Latitude | Longitude | Altitude | Speed | Heading |
|---|---|---|---|---|---|
| 2026-04-21 11:00 | 12.86546 | 121.47923 | 24902 ft | 424 kts | 146° |
| 2026-04-21 11:00 | 12.84076 | 121.49646 | 24900 ft | 424 kts | 146° |
| 2026-04-21 11:00 | 12.81645 | 121.51341 | 24898 ft | 424 kts | 146° |
| 2026-04-21 11:01 | 12.79199 | 121.53049 | 24895 ft | 424 kts | 146° |
| 2026-04-21 11:01 | 12.76761 | 121.54752 | 24894 ft | 424 kts | 146° |
| 2026-04-21 11:01 | 12.74327 | 121.56451 | 24895 ft | 424 kts | 146° |
| 2026-04-21 11:02 | 12.69454 | 121.59855 | 24174 ft | 424 kts | 146° |
| 2026-04-21 11:02 | 12.67029 | 121.61549 | 23436 ft | 422 kts | 146° |
| 2026-04-21 11:02 | 12.64609 | 121.63233 | 22695 ft | 417 kts | 146° |
| 2026-04-21 11:02 | 12.62228 | 121.64890 | 22070 ft | 411 kts | 146° |
| 2026-04-21 11:03 | 12.59881 | 121.66526 | 21465 ft | 406 kts | 146° |
| 2026-04-21 11:03 | 12.57613 | 121.68104 | 20903 ft | 401 kts | 146° |
| 2026-04-21 11:03 | 12.55270 | 121.69735 | 20318 ft | 396 kts | 146° |
| 2026-04-21 11:03 | 12.53031 | 121.71295 | 19732 ft | 393 kts | 146° |
| 2026-04-21 11:04 | 12.50748 | 121.72883 | 19128 ft | 390 kts | 146° |
| 2026-04-21 11:04 | 12.48512 | 121.74437 | 18518 ft | 388 kts | 146° |
| 2026-04-21 11:04 | 12.46278 | 121.75987 | 17855 ft | 387 kts | 146° |
| 2026-04-21 11:04 | 12.44060 | 121.77527 | 17204 ft | 384 kts | 146° |
| 2026-04-21 11:05 | 12.41866 | 121.79055 | 16574 ft | 381 kts | 145° |
| 2026-04-21 11:05 | 12.39658 | 121.80545 | 15947 ft | 378 kts | 150° |
| 2026-04-21 11:05 | 12.37240 | 121.81586 | 15321 ft | 377 kts | 163° |
| 2026-04-21 11:05 | 12.34657 | 121.82008 | 14676 ft | 377 kts | 177° |
| 2026-04-21 11:06 | 12.32076 | 121.81791 | 14038 ft | 378 kts | 190° |
| 2026-04-21 11:06 | 12.29474 | 121.81220 | 13320 ft | 377 kts | 191° |
| 2026-04-21 11:06 | 12.26923 | 121.80661 | 12650 ft | 374 kts | 191° |
| 2026-04-21 11:06 | 12.24420 | 121.80115 | 11986 ft | 370 kts | 191° |
| 2026-04-21 11:07 | 12.21914 | 121.79571 | 11313 ft | 367 kts | 191° |
| 2026-04-21 11:07 | 12.19398 | 121.79027 | 10618 ft | 363 kts | 191° |
| 2026-04-21 11:07 | 12.16956 | 121.78499 | 10291 ft | 350 kts | 191° |
| 2026-04-21 11:07 | 12.14630 | 121.77997 | 10173 ft | 332 kts | 190° |
| 2026-04-21 11:08 | 12.12430 | 121.77522 | 10060 ft | 316 kts | 190° |
| 2026-04-21 11:08 | 12.10324 | 121.77065 | 9899 ft | 304 kts | 190° |
| 2026-04-21 11:08 | 12.08274 | 121.76621 | 9783 ft | 300 kts | 190° |
| 2026-04-21 11:08 | 12.06239 | 121.76179 | 9450 ft | 298 kts | 190° |
| 2026-04-21 11:09 | 12.04220 | 121.75741 | 9013 ft | 291 kts | 190° |
| 2026-04-21 11:09 | 12.02245 | 121.75313 | 8594 ft | 289 kts | 190° |
| 2026-04-21 11:09 | 12.00284 | 121.74890 | 8166 ft | 287 kts | 190° |
| 2026-04-21 11:09 | 11.98338 | 121.74469 | 7743 ft | 285 kts | 190° |
| 2026-04-21 11:10 | 11.96431 | 121.74056 | 7332 ft | 283 kts | 190° |
| 2026-04-21 11:10 | 11.94513 | 121.73644 | 6911 ft | 281 kts | 189° |
| 2026-04-21 11:10 | 11.92614 | 121.73241 | 6502 ft | 275 kts | 187° |
| 2026-04-21 11:10 | 11.90778 | 121.73245 | 6093 ft | 255 kts | 164° |
| 2026-04-21 11:11 | 11.89163 | 121.73910 | 5700 ft | 249 kts | 150° |
| 2026-04-21 11:11 | 11.87622 | 121.74710 | 5315 ft | 248 kts | 150° |
| 2026-04-21 11:11 | 11.86094 | 121.75505 | 4934 ft | 246 kts | 150° |
| 2026-04-21 11:11 | 11.84597 | 121.76336 | 4550 ft | 243 kts | 141° |
| 2026-04-21 11:12 | 11.83661 | 121.77685 | 4172 ft | 232 kts | 102° |
| 2026-04-21 11:12 | 11.83776 | 121.79282 | 3853 ft | 227 kts | 70° |
| 2026-04-21 11:12 | 11.84469 | 121.80717 | 3519 ft | 225 kts | 60° |
| 2026-04-21 11:12 | 11.85288 | 121.82061 | 3176 ft | 219 kts | 58° |
| 2026-04-21 11:13 | 11.86078 | 121.83343 | 2846 ft | 207 kts | 59° |
| 2026-04-21 11:13 | 11.86803 | 121.84573 | 2538 ft | 197 kts | 61° |
| 2026-04-21 11:13 | 11.87470 | 121.85761 | 2251 ft | 189 kts | 62° |
| 2026-04-21 11:13 | 11.88090 | 121.86907 | 2009 ft | 181 kts | 62° |
| 2026-04-21 11:14 | 11.88672 | 121.88006 | 1728 ft | 170 kts | 62° |
| 2026-04-21 11:14 | 11.89191 | 121.88999 | 1495 ft | 148 kts | 63° |
| 2026-04-21 11:14 | 11.89644 | 121.89876 | 1279 ft | 131 kts | 63° |
| 2026-04-21 11:14 | 11.90050 | 121.90667 | 1101 ft | 122 kts | 63° |
| 2026-04-21 11:15 | 11.90435 | 121.91425 | 923 ft | 119 kts | 64° |
| 2026-04-21 11:15 | 11.90813 | 121.92170 | 757 ft | 116 kts | 62° |
| 2026-04-21 11:15 | 11.91193 | 121.92919 | 593 ft | 119 kts | 63° |
| 2026-04-21 11:15 | 11.91576 | 121.93669 | 376 ft | 121 kts | 62° |
| 2026-04-21 11:16 | 11.91961 | 121.94422 | 191 ft | 119 kts | 65° |
| 2026-04-21 11:16 | 11.92341 | 121.95167 | 48 ft | 117 kts | 62° |
| 2026-04-21 11:16 | 11.92645 | 121.95774 | 27 ft | 60 kts | 63° |
| 2026-04-21 11:16 | 11.92716 | 121.95915 | 27 ft | 9 kts | 62° |
| 2026-04-21 11:17 | 11.92774 | 121.96029 | 27 ft | 27 kts | 63° |
| 2026-04-21 11:17 | 11.92799 | 121.96123 | 27 ft | 7 kts | 126° |
| 2026-04-21 11:17 | 11.92756 | 121.96143 | 26 ft | 6 kts | 149° |
| 2026-04-21 11:17 | 11.92718 | 121.96164 | 26 ft | 6 kts | 152° |
| 2026-04-21 11:18 | 11.92678 | 121.96185 | 27 ft | 7 kts | 153° |
| 2026-04-21 11:18 | 11.92648 | 121.96216 | 27 ft | 6 kts | 109° |
| 2026-04-21 11:18 | 11.92664 | 121.96254 | 27 ft | 7 kts | 62° |
| 2026-04-21 11:18 | 11.92678 | 121.96281 | 27 ft | 4 kts | 63° |
| 2026-04-21 11:19 | 11.92690 | 121.96306 | 27 ft | 4 kts | 64° |
| 2026-04-21 11:19 | 11.92682 | 121.96322 | 27 ft | 2 kts | 136° |
| 2026-04-21 11:19 | 11.92666 | 121.96332 | 27 ft | 3 kts | 152° |
| 2026-04-21 11:19 | 11.92660 | 121.96335 | 27 ft | 1 kts | 152° |
| 2026-04-21 11:20 | 11.92656 | 121.96338 | 27 ft | 0 kts | 152° |